AirNav   TITAN Aviation Fuels
 
 681 users online  

KBFA Boyne Mountain Airport
Boyne Falls, Michigan, USA

GOING TO BOYNE FALLS?


FAA INFORMATION EFFECTIVE 04 NOVEMBER 2021

Location

FAA Identifier: BFA
Lat/Long: 45-09-57.0295N 084-55-26.8100W
45-09.950492N 084-55.446833W
45.1658415,-84.9241139
(estimated)
Elevation: 719 ft. / 219.2 m (surveyed)
Variation: 06W (2000)
From city: 1 mile W of BOYNE FALLS, MI
Time zone: UTC -4 (UTC -5 during Standard Time)
Zip code: 49712

Airport Operations

Airport use: Open to the public
Activation date: 08/1964
Control tower: no
ARTCC: MINNEAPOLIS CENTER
FSS: LANSING FLIGHT SERVICE STATION
NOTAMs facility: LAN (NOTAM-D service available)
Attendance: UNATNDD
Wind indicator: yes
Segmented circle: yes
Lights: ACTVT REIL RWY 17 & 35; NSTD LIRL RWY 17/35 - 122.85.

Airport Communications

CTAF/UNICOM: 122.8
WX ASOS at GLR (13 nm SE): 118.375 (989-732-1571)
WX AWOS-3 at MGN (16 nm N): 119.925 (231-347-5231)
WX AWOS-3 at ACB (16 nm SW): 119.275 (231-533-8941)
WX AWOS-3 at CVX (17 nm NW): 120.0 (231-237-9703)
  • APCH/DEP SVC PRVDD BY MINNEAPOLIS ARTCC ON FREQS 134.6/354.05 (PELLSTON RCAG).

Nearby radio navigation aids

VOR radial/distance  VOR name  Freq  Var
GLRr321/13.1GAYLORD VOR/DME109.2006W
PLNr207/30.0PELLSTON VORTAC111.8006W
CGGr350/(30.2)GRAYLING VOR109.8006W
TVCr044/40.0TRAVERSE CITY VOR/DME114.6002W

 
NDB name  Hdg/Dist  Freq  Var  ID
BANGU338/10.337506WGL --. .-..
GRAYLING357/25.335906WGYG --. -.-- --.

Airport Services

Fuel available: 100LL
100LL:ONLY AVBL ON CALL SUN-SAT 0800-1600. NO SELF SVC AVBL.
Parking: tiedowns

Runway Information

Runway 17/35

Dimensions: 5187 x 60 ft. / 1581 x 18 m
HAS 10' PAVED SHOULDER EACH SIDE; LAST 4700' RY 35.
Surface: asphalt, in poor condition
EXTSV CRACKING & VEGETATION GROWTH.
Runway edge lights: non-standard
NSTD LIRL 80 FT FM RWY EDGES. RWY HAS REFLECTORS SUMMER MONTHS.
RUNWAY 17  RUNWAY 35
Latitude: 45-10.369817N45-09.531167N
Longitude: 084-55.559167W084-55.334500W
Elevation: 703.0 ft.719.0 ft.
Traffic pattern: leftleft
Runway heading: 175 magnetic, 169 true355 magnetic, 349 true
Displaced threshold: 300 ft.500 ft.
Markings: nonprecision, in good conditionnonprecision, in good condition
Runway end identifier lights: yesyes
Touchdown point: yes, no lightsyes, no lights
Obstructions: 15 ft. road, 200 ft. from runway, 55 ft. right of centerline
+15 FT ROAD, 0-199 FT DIST, 100 FT L TO 90 FT R.
20 ft. trees, 200 ft. from runway, 90 ft. right of centerline
+25 FT TREES, 0-199 FT DIST, 40-250 FT R; +25 FT TREES, 0-80 FT DIST, 140 FT L.

Airport Ownership and Management from official FAA records

Ownership: Privately-owned
Owner: BOYNE USA INC
1 BOYNE MOUNTAIN RD
BOYNE FALLS, MI 49713-9642
Phone 231-549-6001
Manager: TONY PLUMB
BOYNE MOUNTAIN LODGE, PO BOX 19
BOYNE FALLS, MI 49713-0019
Phone 231-549-6001

Airport Operational Statistics

Aircraft operations: avg 91/week *
90% transient general aviation
10% local general aviation
* for 12-month period ending 31 December 2020

Additional Remarks

DEER & BIRDS ON & INVOF ARPT.
FOR CD CTC MINNEAPOLIS ARTCC AT 651-463-5588.
RWY 17/35 TREES, BLDGS, & ROADS IN PRI SFC.
PEDESTRIANS INVOF RWY ENVIRONMENT - LODGING 200 FT WEST OF RWY 35 DESIGNATOR.

Instrument Procedures

NOTE: All procedures below are presented as PDF files. If you need a reader for these files, you should download the free Adobe Reader.

NOT FOR NAVIGATION. Please procure official charts for flight.
FAA instrument procedures published for use from 04 November 2021 at 0901Z to 02 December 2021 at 0900z.

 
IAPs - Instrument Approach Procedures
RNAV (GPS) RWY 17 **CHANGED**   download (252KB)
RNAV (GPS) RWY 35 **CHANGED**   download (204KB)
NOTE: Special Take-Off Minimums/Departure Procedures apply   download

Other nearby airports with instrument procedures:

N98 - Boyne City Municipal Airport (4 nm NW)
KGLR - Gaylord Regional Airport (13 nm SE)
KMGN - Harbor Springs Airport (16 nm N)
KACB - Antrim County Airport (16 nm SW)
KCVX - Charlevoix Municipal Airport (17 nm NW)
 
Loc | Ops | Rwys | IFR | FBO | Links
Com | Nav | Svcs | Stats | Notes
Area around KBFA (Boyne Mountain Airport)
 
Road maps at: MapQuest Bing Google
 
Aerial photo
WARNING: Photo may not be current or correct
Aerial photo of KBFA (Boyne Mountain Airport)
Photo by Terry Graham
Photo taken 30-Sep-2018
looking south.

Do you have a better or more recent aerial photo of Boyne Mountain Airport that you would like to share? If so, please send us your photo.

 
Sectional chart

 
Airport distance calculator
Flying to Boyne Mountain Airport? Find the distance to fly.

From to KBFA

Sunrise and sunset
Times for 29-Nov-2021
 Local
(UTC-5)
 Zulu
(UTC)
Morning civil twilight07:2412:24
Sunrise07:5712:57
Sunset16:5921:59
Evening civil twilight17:3222:32

Current date and time
Zulu (UTC)  29-Nov-2021 10:10:29
Local (UTC-5)  29-Nov-2021 05:10:29
 
METAR
KGLR 
14nm SE 
290953Z AUTO 26005KT 9SM FEW010 BKN030 OVC049 M02/M04 A2997 RMK AO2 SNE53 SLP164 P0000 T10221039
KACB 
16nm SW 
290955Z AUTO 00000KT 10SM BKN034 OVC040 00/M02 A3001 RMK AO2 T10051018
KMGN 
16nm N 
290955Z AUTO 32006KT 10SM OVC049 00/M03 A2999 RMK AO2 T00011033
KCVX 
17nm NW 
290955Z AUTO 30009KT 10SM BKN036 OVC043 01/M04 A3000 RMK AO2 T00141042
KPLN 
25nm N 
290954Z AUTO 29007KT 10SM FEW025 SCT039 OVC050 00/M03 A2999 RMK AO2 SLP166 T00001033
TAF
KPLN 
25nm N 
290523Z 2906/3006 32009KT P6SM VCSH SCT025 OVC035 TEMPO 2906/2909 1 1/2SM -SHSN BKN015 FM291500 23007KT P6SM OVC040 FM292100 19006KT 6SM -SHSNRA BKN040 OVC080 FM300000 17004KT 4SM -SHSN OVC015
NOTAMs
Click for the latest NOTAMs
NOTAMs are issued by the DoD/FAA and will open in a separate window not controlled by AirNav.

 

 
 

FBO, Fuel Providers, and Aircraft Ground Support

  
 Business Name 
 
 Contact 
 
 Services / Description 
 
Fuel Prices
 
Comments
  
Boyne Mountain Resort 231-549-6000
no information available

If you are affiliated with Boyne Mountain Resort and would like to show here your services, contact info, web link, logo, and more, click here
100LL
FS $4.90 
 Updated 07-Oct-2021
 
   3 read write
FS=Full service
Update Fuel Prices
 

Would you like to see your business listed on this page?

 If your business provides an interesting product or service to pilots, flight crews, aircraft, or users of the Boyne Mountain Airport, you should consider listing it here.  To start the listing process, click on the button below
 
Add a business
 

Other Pages about Boyne Mountain Airport

Page from the Michigan Airport Directory (PDF)
 
Update a link
 
Copyright © AirNav, LLC. All rights reserved. Privacy Policy  Contact